Time;durP1;ratioP1;P1;durP2;ratioP2;P2;SDS_P1;SDS_P2;PMS_P1;PMS_P2;Temp;Humidity;BMP_temperature;BMP_pressure;BME280_temperature;BME280_humidity;BME280_pressure;Samples;Min_cycle;Max_cycle;Signal;HPM_P1;HPM_P2
2021/12/25 00:01:41;;;;;;;13.80;8.00;;;;;;;4.94;95.55;100430.91;4983811;28;20062;-75
2021/12/25 00:04:07;;;;;;;16.52;9.40;;;;;;;4.92;95.55;100432.81;4976208;28;20408;-76
2021/12/25 00:06:34;;;;;;;17.00;9.10;;;;;;;4.90;95.40;100432.03;4989480;28;20030;-75
2021/12/25 00:09:00;;;;;;;14.18;8.63;;;;;;;4.89;95.61;100424.03;4985769;28;20044;-76
2021/12/25 00:11:25;;;;;;;16.08;8.55;;;;;;;4.88;95.58;100427.69;4987939;28;20510;-76
2021/12/25 00:13:50;;;;;;;15.30;8.10;;;;;;;4.91;95.61;100438.31;4987779;28;20027;-76
2021/12/25 00:16:16;;;;;;;15.02;8.73;;;;;;;4.88;95.53;100436.63;4984123;28;20457;-76
2021/12/25 00:18:41;;;;;;;11.13;7.13;;;;;;;4.86;95.36;100436.72;4975434;28;20449;-76
2021/12/25 00:21:08;;;;;;;16.10;8.80;;;;;;;4.86;95.39;100438.56;4989891;28;20417;-76
2021/12/25 00:23:33;;;;;;;15.40;8.32;;;;;;;4.87;95.27;100434.91;4990043;28;20049;-76
2021/12/25 00:26:07;;;;;;;16.17;9.13;;;;;;;4.86;95.17;100436.72;4980474;28;20034;-76
2021/12/25 00:36:09;;;;;;;16.08;8.73;;;;;;;4.81;95.03;100416.38;4990032;28;20061;-76
2021/12/25 00:38:37;;;;;;;17.08;8.95;;;;;;;4.79;95.00;100421.84;4990514;28;20026;-76
2021/12/25 00:41:04;;;;;;;16.00;9.35;;;;;;;4.79;95.38;100419.16;4975407;28;20022;-75
2021/12/25 00:43:29;;;;;;;16.67;9.13;;;;;;;4.79;95.38;100418.28;4976785;28;20458;-76
2021/12/25 00:45:54;;;;;;;15.60;8.77;;;;;;;4.78;95.52;100422.81;4984116;28;20026;-76
2021/12/25 00:48:20;;;;;;;17.23;10.07;;;;;;;4.79;95.56;100424.53;4981472;28;20033;-76
2021/12/25 00:50:45;;;;;;;17.58;9.65;;;;;;;4.80;95.17;100430.78;4989519;28;20022;-75
2021/12/25 00:53:10;;;;;;;15.57;9.15;;;;;;;4.78;95.13;100428.19;4976385;28;20562;-75
2021/12/25 00:55:35;;;;;;;16.42;8.82;;;;;;;4.80;95.39;100422.72;4983440;28;20093;-75
2021/12/25 00:58:01;;;;;;;16.65;10.23;;;;;;;4.80;95.49;100425.41;4984614;28;20402;-76
2021/12/25 01:00:26;;;;;;;19.35;9.95;;;;;;;4.78;94.74;100428.19;4983092;28;20035;-76
2021/12/25 01:02:51;;;;;;;16.63;9.75;;;;;;;4.75;95.07;100420.28;4968840;28;20394;-75
2021/12/25 01:05:17;;;;;;;17.02;8.88;;;;;;;4.76;95.04;100427.41;4979748;28;20444;-75
2021/12/25 01:07:43;;;;;;;14.63;9.02;;;;;;;4.74;95.00;100426.63;4989105;28;20081;-75
2021/12/25 01:10:14;;;;;;;16.02;8.57;;;;;;;4.72;94.93;100423.16;4978965;28;21210;-75
2021/12/25 01:15:12;;;;;;;14.25;8.27;;;;;;;4.68;95.24;100428.78;4988939;28;20102;-75
2021/12/25 01:20:25;;;;;;;16.10;8.57;;;;;;;4.69;95.33;100431.38;4981340;28;20042;-75
2021/12/25 01:23:19;;;;;;;15.32;8.65;;;;;;;4.69;95.09;100423.31;4982939;28;20056;-75
2021/12/25 01:49:37;;;;;;;19.73;10.32;;;;;;;4.57;95.18;100419.47;4980645;28;20077;-76
2021/12/25 01:52:04;;;;;;;30.23;11.88;;;;;;;4.55;95.24;100429.44;4976891;28;20463;-76
2021/12/25 01:54:29;;;;;;;20.85;10.93;;;;;;;4.54;95.04;100424.16;4988061;28;20053;-76
2021/12/25 01:56:55;;;;;;;21.95;12.18;;;;;;;4.52;94.70;100429.63;4985215;28;20061;-76
2021/12/25 01:59:20;;;;;;;21.30;12.02;;;;;;;4.52;95.03;100413.47;4987844;28;20483;-76
2021/12/25 02:01:45;;;;;;;22.00;11.45;;;;;;;4.50;95.06;100412.66;4982638;28;20064;-76
2021/12/25 02:04:11;;;;;;;24.13;12.30;;;;;;;4.50;95.10;100412.66;4985104;28;20045;-76
2021/12/25 02:06:37;;;;;;;22.13;12.27;;;;;;;4.50;94.94;100417.19;4986524;28;20034;-76
2021/12/25 02:09:04;;;;;;;28.48;14.07;;;;;;;4.49;94.67;100416.31;4982270;28;20047;-76
2021/12/25 02:11:30;;;;;;;29.13;14.48;;;;;;;4.49;94.70;100423.53;4987587;28;20041;-76
2021/12/25 02:13:58;;;;;;;28.98;14.80;;;;;;;4.47;95.03;100420.03;4983966;28;20038;-76
2021/12/25 02:16:29;;;;;;;26.60;14.55;;;;;;;4.46;95.19;100416.47;4981054;28;20026;-76
2021/12/25 02:18:59;;;;;;;26.60;14.80;;;;;;;4.45;95.19;100412.06;4984450;28;20101;-76
2021/12/25 02:21:33;;;;;;;26.02;14.85;;;;;;;4.43;94.89;100413.06;4988173;28;20019;-76
2021/12/25 02:23:59;;;;;;;24.73;12.80;;;;;;;4.44;94.52;100414.84;4986095;28;20026;-76
2021/12/25 02:26:26;;;;;;;27.70;14.15;;;;;;;4.43;94.99;100413.06;4982148;28;20053;-76
2021/12/25 02:28:52;;;;;;;27.38;13.05;;;;;;;4.42;94.71;100416.72;4987816;28;20113;-75
2021/12/25 02:31:18;;;;;;;25.02;13.75;;;;;;;4.43;94.85;100418.47;4984493;28;20034;-75
2021/12/25 02:33:44;;;;;;;22.63;12.80;;;;;;;4.40;94.80;100414.13;4983769;28;20022;-75
2021/12/25 02:36:12;;;;;;;23.27;13.00;;;;;;;4.40;94.21;100413.25;4985573;28;20022;-75
2021/12/25 02:38:39;;;;;;;23.35;12.75;;;;;;;4.34;94.58;100412.63;4968977;28;20457;-75
2021/12/25 02:41:06;;;;;;;19.02;10.88;;;;;;;4.32;94.03;100406.44;4976061;28;20172;-76
2021/12/25 02:43:32;;;;;;;21.73;11.57;;;;;;;4.26;94.43;100412.16;4987082;28;20026;-76
2021/12/25 02:46:02;;;;;;;21.88;11.65;;;;;;;4.23;94.31;100422.22;4981559;28;20120;-75
2021/12/25 02:48:28;;;;;;;21.25;11.52;;;;;;;4.20;94.26;100433.19;4985051;28;20030;-75
2021/12/25 02:50:54;;;;;;;20.40;10.98;;;;;;;4.11;94.58;100421.06;4980611;28;20054;-75
2021/12/25 02:53:19;;;;;;;23.30;12.52;;;;;;;4.02;94.94;100424.25;4986343;28;20018;-75
2021/12/25 02:55:46;;;;;;;19.80;11.70;;;;;;;3.97;95.21;100429.00;4977370;28;20030;-75
2021/12/25 02:58:12;;;;;;;19.23;10.35;;;;;;;3.89;94.93;100420.44;4980444;28;20452;-75
2021/12/25 03:00:47;;;;;;;18.67;8.88;;;;;;;3.79;94.63;100423.59;4974868;28;20070;-76
2021/12/25 03:03:13;;;;;;;21.30;10.77;;;;;;;3.73;95.03;100428.41;4983460;28;20037;-76
2021/12/25 03:05:40;;;;;;;17.98;9.75;;;;;;;3.66;94.73;100437.75;4975907;28;20031;-75
2021/12/25 03:08:08;;;;;;;20.05;10.48;;;;;;;3.60;95.05;100440.78;4985680;28;20146;-76
2021/12/25 03:10:35;;;;;;;21.58;10.60;;;;;;;3.51;94.69;100442.09;4986815;28;20482;-75
2021/12/25 03:15:46;;;;;;;22.98;10.65;;;;;;;3.39;95.26;100445.38;4974316;28;20132;-75
2021/12/25 03:18:25;;;;;;;19.48;9.93;;;;;;;3.36;95.11;100453.59;4990413;28;20037;-76
2021/12/25 03:20:57;;;;;;;20.42;10.30;;;;;;;3.30;94.88;100458.31;4977325;28;20112;-76
2021/12/25 03:23:26;;;;;;;27.35;11.10;;;;;;;3.27;94.79;100463.88;4991527;28;20080;-75
2021/12/25 03:25:52;;;;;;;22.90;10.93;;;;;;;3.22;95.12;100448.91;4980780;28;20069;-76
2021/12/25 03:28:22;;;;;;;25.50;10.82;;;;;;;3.17;94.65;100462.56;4985632;28;20449;-75
2021/12/25 03:30:49;;;;;;;20.40;10.23;;;;;;;3.14;95.08;100459.16;4988858;28;20065;-76
2021/12/25 03:33:16;;;;;;;21.90;9.77;;;;;;;3.13;94.72;100468.16;4982870;28;20050;-76
2021/12/25 03:35:42;;;;;;;18.83;9.45;;;;;;;3.05;94.72;100465.84;4981141;28;20023;-76
2021/12/25 03:38:11;;;;;;;19.02;10.45;;;;;;;3.00;94.30;100471.44;4986039;28;20034;-75
2021/12/25 03:40:37;;;;;;;19.42;10.07;;;;;;;2.95;94.20;100469.91;4990049;28;20057;-76
2021/12/25 03:43:04;;;;;;;19.70;10.25;;;;;;;2.89;94.39;100476.44;4981032;28;20025;-75
2021/12/25 03:45:31;;;;;;;18.38;9.73;;;;;;;2.81;94.39;100460.66;4989054;28;20022;-75
2021/12/25 03:58:44;;;;;;;21.88;11.82;;;;;;;2.60;95.05;100479.56;4982816;28;20045;-76
2021/12/25 04:01:25;;;;;;;24.83;11.23;;;;;;;2.56;95.00;100481.53;4984737;28;20023;-76
2021/12/25 04:04:09;;;;;;;23.17;9.63;;;;;;;2.57;95.17;100480.59;4978788;28;20068;-75
2021/12/25 04:06:43;;;;;;;19.63;10.15;;;;;;;2.54;95.32;100472.69;4976991;28;20026;-76
2021/12/25 04:09:19;;;;;;;23.52;10.85;;;;;;;2.51;95.33;100486.22;4983334;28;20426;-76
2021/12/25 04:11:45;;;;;;;20.33;10.95;;;;;;;2.50;95.32;100484.50;4986739;28;20030;-76
2021/12/25 04:14:10;;;;;;;19.85;10.32;;;;;;;2.47;95.08;100490.00;4979998;28;20053;-75
2021/12/25 04:16:36;;;;;;;24.15;11.77;;;;;;;2.46;95.42;100490.94;4980571;28;20472;-76
2021/12/25 04:19:01;;;;;;;22.85;12.13;;;;;;;2.42;95.16;100494.69;4989888;28;20045;-75
2021/12/25 04:21:28;;;;;;;26.58;12.68;;;;;;;2.38;94.77;100494.00;4990770;28;20022;-75
2021/12/25 04:23:53;;;;;;;23.55;11.82;;;;;;;2.32;94.06;100498.75;4989010;28;20029;-75
2021/12/25 04:26:20;;;;;;;23.08;11.93;;;;;;;2.26;94.17;100502.56;4979501;28;20030;-76
2021/12/25 04:29:00;;;;;;;26.88;12.57;;;;;;;2.15;94.53;100503.03;4984525;28;21204;-75
2021/12/25 05:04:00;;;;;;;24.73;12.95;;;;;;;1.37;94.75;100535.78;4979600;28;20100;-76
2021/12/25 05:06:26;;;;;;;28.50;13.38;;;;;;;1.38;94.59;100539.31;4976738;28;20460;-75
2021/12/25 05:08:52;;;;;;;28.20;12.85;;;;;;;1.36;95.04;100551.94;4989208;28;20525;-76
2021/12/25 05:11:18;;;;;;;24.48;12.18;;;;;;;1.33;94.87;100542.19;4978274;28;20027;-75
2021/12/25 05:13:45;;;;;;;29.15;13.95;;;;;;;1.34;95.41;100549.28;4987947;28;20033;-75
2021/12/25 05:16:11;;;;;;;27.25;13.13;;;;;;;1.34;95.15;100548.41;4977434;28;20031;-75
2021/12/25 05:18:36;;;;;;;26.42;12.93;;;;;;;1.33;95.22;100557.41;4974486;28;20057;-75
2021/12/25 05:21:02;;;;;;;24.35;12.30;;;;;;;1.30;94.87;100550.34;4986885;28;20387;-75
2021/12/25 05:23:27;;;;;;;29.92;13.85;;;;;;;1.27;94.83;100548.66;4988160;28;20375;-75
2021/12/25 05:25:53;;;;;;;23.50;11.93;;;;;;;1.26;94.68;100556.78;4986065;28;20030;-76
2021/12/25 05:28:25;;;;;;;24.63;12.23;;;;;;;1.21;94.77;100553.38;4989075;28;20022;-75
2021/12/25 05:30:51;;;;;;;26.50;13.20;;;;;;;1.16;94.55;100552.69;4985537;28;20239;-75
2021/12/25 05:33:17;;;;;;;26.52;13.25;;;;;;;1.13;94.83;100563.53;4969716;28;20363;-74
2021/12/25 05:35:43;;;;;;;23.35;12.45;;;;;;;1.11;95.05;100568.94;4978762;28;20257;-75
2021/12/25 05:38:13;;;;;;;26.77;13.77;;;;;;;1.08;94.90;100570.88;4987454;28;20026;-76
2021/12/25 05:40:39;;;;;;;27.73;13.77;;;;;;;1.04;95.14;100569.25;4986392;28;20034;-76
2021/12/25 05:43:06;;;;;;;25.83;13.32;;;;;;;1.03;95.10;100573.72;4977278;28;20087;-76
2021/12/25 05:45:32;;;;;;;25.33;11.85;;;;;;;1.01;95.30;100572.88;4987791;28;20030;-76
2021/12/25 05:47:57;;;;;;;28.77;13.98;;;;;;;0.97;95.34;100574.81;4978855;28;20038;-76
2021/12/25 05:50:23;;;;;;;26.20;13.00;;;;;;;0.97;95.29;100565.91;4982525;28;20026;-75
2021/12/25 05:52:48;;;;;;;25.45;11.98;;;;;;;0.97;95.57;100572.13;4976198;28;20110;-75
2021/12/25 05:55:13;;;;;;;24.50;11.82;;;;;;;0.98;95.40;100576.56;4983225;28;20034;-75
2021/12/25 05:57:39;;;;;;;24.60;12.18;;;;;;;0.92;94.64;100576.78;4971425;28;20094;-74
2021/12/25 06:00:07;;;;;;;21.90;10.27;;;;;;;0.88;94.51;100583.19;4986715;28;20026;-76
2021/12/25 06:02:32;;;;;;;23.17;11.35;;;;;;;0.79;94.44;100591.53;4980100;28;20065;-75
2021/12/25 06:04:57;;;;;;;23.45;11.60;;;;;;;0.71;95.24;100590.97;4988078;28;20086;-75
2021/12/25 06:07:22;;;;;;;20.83;10.27;;;;;;;0.65;94.80;100599.19;4983917;28;20084;-75
2021/12/25 06:09:48;;;;;;;23.15;11.60;;;;;;;0.54;95.06;100602.25;4983000;28;20026;-74
2021/12/25 06:12:14;;;;;;;23.20;10.63;;;;;;;0.47;95.47;100601.63;4986494;28;20482;-75
2021/12/25 06:14:41;;;;;;;23.25;11.55;;;;;;;0.41;95.22;100599.13;4986052;28;20026;-76
2021/12/25 06:17:06;;;;;;;23.30;10.85;;;;;;;0.41;95.12;100599.13;4979234;28;20041;-75
2021/12/25 06:19:32;;;;;;;22.75;10.52;;;;;;;0.38;95.75;100596.59;4984970;28;20022;-75
2021/12/25 06:21:57;;;;;;;20.25;10.45;;;;;;;0.35;95.76;100602.03;4986127;28;20022;-75
2021/12/25 06:24:22;;;;;;;22.55;10.55;;;;;;;0.34;96.08;100596.75;4987331;28;20067;-75
2021/12/25 06:26:48;;;;;;;23.33;10.25;;;;;;;0.34;95.50;100605.63;4986362;28;20030;-75
2021/12/25 06:29:19;;;;;;;26.42;12.30;;;;;;;0.32;95.55;100610.16;4987672;28;20049;-75
2021/12/25 06:31:44;;;;;;;21.35;10.75;;;;;;;0.29;95.74;100612.97;4974127;28;20042;-75
2021/12/25 06:34:10;;;;;;;24.38;11.82;;;;;;;0.28;95.79;100608.53;4985545;28;20022;-75
2021/12/25 06:36:35;;;;;;;24.25;10.90;;;;;;;0.24;96.10;100602.41;4983073;28;20022;-75
2021/12/25 06:39:01;;;;;;;21.90;10.98;;;;;;;0.29;96.16;100609.41;4985267;28;20435;-75
2021/12/25 06:41:28;;;;;;;25.60;10.88;;;;;;;0.25;96.29;100611.31;4980839;28;20131;-75
2021/12/25 06:43:53;;;;;;;24.35;11.43;;;;;;;0.24;96.18;100618.47;4981475;28;20029;-75
2021/12/25 06:46:19;;;;;;;24.48;11.27;;;;;;;0.25;96.12;100622.00;4981540;28;20023;-75
2021/12/25 06:48:44;;;;;;;22.35;10.68;;;;;;;0.23;96.24;100618.50;4976436;28;20058;-75
2021/12/25 06:51:09;;;;;;;23.98;12.10;;;;;;;0.17;96.32;100608.00;4982314;28;20037;-75
2021/12/25 06:53:35;;;;;;;25.00;11.00;;;;;;;0.20;96.12;100615.94;4986960;28;20034;-75
2021/12/25 06:56:00;;;;;;;23.67;11.52;;;;;;;0.19;96.47;100624.91;4978611;28;20077;-75
2021/12/25 06:58:26;;;;;;;22.92;11.27;;;;;;;0.20;96.40;100624.84;4984269;28;20444;-75
2021/12/25 07:00:51;;;;;;;27.67;10.82;;;;;;;0.20;95.96;100622.16;4980536;28;20030;-75
2021/12/25 07:03:16;;;;;;;20.70;9.98;;;;;;;0.22;96.40;100633.66;4985074;28;20476;-75
2021/12/25 07:05:42;;;;;;;27.05;11.18;;;;;;;0.24;96.36;100633.63;4985703;28;20100;-74
2021/12/25 07:08:07;;;;;;;27.48;12.23;;;;;;;0.25;96.37;100638.06;4984557;28;20039;-75
2021/12/25 07:10:32;;;;;;;24.45;10.70;;;;;;;0.27;96.46;100636.19;4986965;28;20045;-75
2021/12/25 07:12:58;;;;;;;25.73;10.50;;;;;;;0.24;96.20;100645.22;4985067;28;20037;-75
2021/12/25 07:15:23;;;;;;;22.92;10.90;;;;;;;0.24;95.97;100652.38;4987519;28;20018;-75
2021/12/25 07:17:48;;;;;;;22.63;11.18;;;;;;;0.24;96.31;100653.22;4977600;28;20018;-75
2021/12/25 07:20:14;;;;;;;21.25;10.73;;;;;;;0.20;96.27;100642.69;4984609;28;20039;-74
2021/12/25 07:22:39;;;;;;;22.50;10.80;;;;;;;0.23;96.09;100661.28;4986011;28;20022;-74
2021/12/25 07:25:07;;;;;;;22.05;10.98;;;;;;;0.21;96.18;100663.16;4981091;28;20479;-75
2021/12/25 07:27:32;;;;;;;24.92;11.20;;;;;;;0.21;96.23;100669.38;4986437;28;20421;-75
2021/12/25 07:29:58;;;;;;;22.50;10.77;;;;;;;0.21;96.10;100665.81;4984038;28;20030;-75
2021/12/25 07:32:23;;;;;;;19.15;9.70;;;;;;;0.19;96.00;100673.91;4981727;28;20026;-75
2021/12/25 07:34:50;;;;;;;17.00;9.38;;;;;;;0.16;95.70;100668.66;4986589;28;20105;-75
2021/12/25 07:37:16;;;;;;;19.42;9.10;;;;;;;0.10;95.77;100671.53;4979430;28;20462;-75
2021/12/25 07:39:42;;;;;;;21.42;10.10;;;;;;;0.09;95.71;100667.09;4978485;28;20034;-75
2021/12/25 07:42:08;;;;;;;19.92;9.38;;;;;;;0.09;96.08;100677.78;4980554;28;20594;-75
2021/12/25 07:44:34;;;;;;;15.65;7.65;;;;;;;0.06;95.16;100674.34;4986271;28;20069;-75
2021/12/25 07:46:59;;;;;;;16.70;8.02;;;;;;;0.01;94.64;100673.63;4974693;28;20573;-75
2021/12/25 07:49:26;;;;;;;12.70;7.40;;;;;;;-0.05;94.55;100686.28;4988092;28;20065;-75
2021/12/25 07:51:51;;;;;;;15.35;7.55;;;;;;;-0.10;95.00;100677.50;4974244;28;20061;-75
2021/12/25 07:54:16;;;;;;;9.93;5.60;;;;;;;-0.12;94.23;100676.69;4978962;28;20352;-75
2021/12/25 07:56:42;;;;;;;10.35;5.88;;;;;;;-0.20;95.09;100681.38;4977245;28;20035;-75
2021/12/25 07:59:07;;;;;;;13.20;7.22;;;;;;;-0.24;94.76;100687.75;4981551;28;20076;-75
2021/12/25 08:01:35;;;;;;;11.18;6.57;;;;;;;-0.25;94.46;100691.34;4981290;28;20073;-75
2021/12/25 08:04:03;;;;;;;9.18;5.55;;;;;;;-0.27;94.26;100691.41;4987735;28;20054;-75
2021/12/25 08:06:30;;;;;;;12.32;6.05;;;;;;;-0.33;94.83;100693.38;4988793;28;20442;-75
2021/12/25 08:08:56;;;;;;;11.27;5.90;;;;;;;-0.34;94.42;100694.28;4985292;28;20533;-76
2021/12/25 08:11:22;;;;;;;9.23;5.07;;;;;;;-0.34;94.00;100695.16;4986046;28;20120;-75
2021/12/25 08:13:48;;;;;;;12.38;6.90;;;;;;;-0.40;94.45;100694.50;4983367;28;20132;-75
2021/12/25 08:16:13;;;;;;;9.15;4.97;;;;;;;-0.39;93.96;100707.78;4983768;28;20026;-75
2021/12/25 08:18:38;;;;;;;10.68;6.05;;;;;;;-0.41;93.98;100712.31;4985306;28;20486;-75
2021/12/25 08:21:04;;;;;;;11.77;5.78;;;;;;;-0.44;93.94;100708.84;4983986;28;20041;-75
2021/12/25 08:23:32;;;;;;;9.48;5.30;;;;;;;-0.46;94.25;100711.59;4985412;28;20097;-75
2021/12/25 08:25:58;;;;;;;11.77;6.90;;;;;;;-0.48;94.82;100708.06;4985368;28;20105;-75
2021/12/25 08:28:23;;;;;;;11.77;6.82;;;;;;;-0.44;94.36;100717.75;4985504;28;20117;-75
2021/12/25 08:30:48;;;;;;;12.70;6.90;;;;;;;-0.47;93.78;100720.50;4984730;28;20072;-75
2021/12/25 08:33:14;;;;;;;14.18;6.63;;;;;;;-0.45;94.69;100726.69;4980858;28;20092;-75
2021/12/25 08:35:39;;;;;;;12.60;7.25;;;;;;;-0.45;94.35;100725.81;4986960;28;20343;-75
2021/12/25 08:38:04;;;;;;;10.85;5.90;;;;;;;-0.45;93.25;100729.38;4975850;28;20045;-75
2021/12/25 08:40:29;;;;;;;15.75;6.82;;;;;;;-0.47;93.95;100728.50;4977443;28;20529;-75
2021/12/25 08:43:01;;;;;;;14.80;7.50;;;;;;;-0.45;94.41;100739.19;4986015;28;20046;-75
2021/12/25 08:45:49;;;;;;;10.85;6.65;;;;;;;-0.49;93.83;100741.06;4983971;28;20034;-75
2021/12/25 08:48:23;;;;;;;14.50;7.43;;;;;;;-0.44;93.21;100751.63;4984874;28;20116;-75
2021/12/25 08:50:51;;;;;;;10.77;6.57;;;;;;;-0.48;92.94;100749.94;4979825;28;20394;-75
2021/12/25 08:53:19;;;;;;;14.25;7.32;;;;;;;-0.48;93.33;100764.19;4988055;28;20050;-74
2021/12/25 08:55:46;;;;;;;12.95;6.60;;;;;;;-0.50;92.72;100743.78;4985151;28;20113;-75
2021/12/25 08:58:11;;;;;;;14.02;7.03;;;;;;;-0.55;92.48;100750.13;4986291;28;20073;-75
2021/12/25 09:00:37;;;;;;;13.10;7.20;;;;;;;-0.56;92.92;100753.72;4984890;28;20486;-75
2021/12/25 09:03:02;;;;;;;9.43;5.53;;;;;;;-0.54;92.37;100761.69;4985424;28;20038;-75
2021/12/25 09:05:28;;;;;;;11.38;6.50;;;;;;;-0.56;92.86;100759.06;4985612;28;20517;-75
2021/12/25 09:07:53;;;;;;;11.35;7.25;;;;;;;-0.55;91.97;100762.63;4981080;28;20072;-75
2021/12/25 09:10:19;;;;;;;12.18;6.65;;;;;;;-0.56;92.85;100768.84;4981272;28;20170;-75
2021/12/25 09:12:45;;;;;;;10.10;5.53;;;;;;;-0.54;92.24;100769.72;4981618;28;20491;-74
2021/12/25 09:15:11;;;;;;;10.85;6.00;;;;;;;-0.60;91.74;100770.75;4975133;28;20038;-75
2021/12/25 09:17:37;;;;;;;10.20;6.63;;;;;;;-0.65;91.63;100769.13;4977155;28;20087;-75
2021/12/25 09:20:05;;;;;;;13.65;6.32;;;;;;;-0.66;91.84;100767.38;4984905;28;20038;-75
2021/12/25 09:22:30;;;;;;;8.68;6.22;;;;;;;-0.63;91.76;100765.50;4975690;28;20030;-75
2021/12/25 09:24:56;;;;;;;10.80;6.47;;;;;;;-0.69;92.28;100772.81;4981467;28;20030;-75
2021/12/25 09:27:21;;;;;;;12.80;6.95;;;;;;;-0.70;92.33;100765.69;4979793;28;20117;-74
2021/12/25 09:29:47;;;;;;;11.65;6.90;;;;;;;-0.73;91.85;100769.34;4981910;28;20233;-75
2021/12/25 09:32:13;;;;;;;12.55;6.15;;;;;;;-0.73;91.37;100760.44;4982437;28;20415;-75
2021/12/25 09:34:38;;;;;;;10.68;5.75;;;;;;;-0.77;91.57;100767.66;4981622;28;20126;-74
2021/12/25 09:37:04;;;;;;;8.27;5.82;;;;;;;-0.81;91.71;100774.88;4983729;28;20474;-75
2021/12/25 09:39:29;;;;;;;12.35;6.43;;;;;;;-0.81;90.77;100764.19;4982802;28;20455;-75
2021/12/25 09:41:54;;;;;;;11.38;6.43;;;;;;;-0.83;90.48;100765.16;4981880;28;20140;-75
2021/12/25 09:44:20;;;;;;;10.27;6.53;;;;;;;-0.86;91.53;100770.59;4978970;28;20049;-75
2021/12/25 09:46:45;;;;;;;10.57;6.00;;;;;;;-0.88;90.81;100765.28;4979983;28;20117;-75
2021/12/25 09:49:11;;;;;;;11.73;6.60;;;;;;;-0.90;90.88;100776.91;4984964;28;20030;-75
2021/12/25 09:51:36;;;;;;;10.43;6.20;;;;;;;-0.90;91.78;100779.59;4981920;28;20084;-75
2021/12/25 09:54:06;;;;;;;10.77;6.38;;;;;;;-0.90;91.49;100774.25;4987469;28;20528;-76
2021/12/25 09:56:33;;;;;;;10.13;5.10;;;;;;;-0.89;90.92;100795.56;4976168;28;20037;-75
2021/12/25 09:58:58;;;;;;;8.93;6.10;;;;;;;-0.93;90.38;100783.22;4981725;28;20133;-75
2021/12/25 10:01:44;;;;;;;9.70;5.28;;;;;;;-0.91;90.44;100793.88;4978947;28;20118;-75
2021/12/25 10:04:12;;;;;;;8.80;5.70;;;;;;;-0.95;90.65;100795.72;4983998;28;20035;-75
2021/12/25 10:06:42;;;;;;;11.70;6.53;;;;;;;-0.92;90.71;100811.69;4980934;28;20070;-75
2021/12/25 10:09:19;;;;;;;10.10;6.40;;;;;;;-0.94;91.10;100801.94;4982373;28;20042;-75
2021/12/25 10:12:00;;;;;;;11.40;6.55;;;;;;;-0.91;91.39;100813.44;4981421;28;20517;-73
2021/12/25 10:14:26;;;;;;;11.65;7.00;;;;;;;-0.91;91.03;100812.56;4981485;28;20372;-75
2021/12/25 10:16:51;;;;;;;12.38;6.18;;;;;;;-0.89;91.73;100816.03;4980656;28;20030;-75
2021/12/25 10:19:20;;;;;;;12.38;5.50;;;;;;;-0.92;90.25;100805.47;4978296;28;20544;-75
2021/12/25 10:21:46;;;;;;;14.88;6.82;;;;;;;-0.90;90.41;100823.19;4974978;28;20037;-75
2021/12/25 10:24:25;;;;;;;10.27;6.18;;;;;;;-0.91;91.43;100810.75;4978519;28;20488;-75
2021/12/25 10:26:50;;;;;;;11.52;6.30;;;;;;;-0.88;91.61;100809.81;4982493;28;20530;-76
2021/12/25 10:29:23;;;;;;;10.88;6.13;;;;;;;-0.88;91.21;100807.16;4983071;28;20045;-75
2021/12/25 10:31:52;;;;;;;;;;;;;;;-0.86;91.24;100818.66;4977792;28;20035;-75
2021/12/25 10:34:21;;;;;;;10.43;5.65;;;;;;;-0.89;90.60;100813.38;4974118;28;20396;-75
2021/12/25 10:36:47;;;;;;;12.27;5.88;;;;;;;-0.92;89.84;100810.81;4975409;28;20030;-75
2021/12/25 10:39:21;;;;;;;9.18;6.10;;;;;;;-0.94;91.35;100812.63;4977600;28;20163;-76
2021/12/25 10:41:54;;;;;;;10.27;6.10;;;;;;;-0.95;90.66;100811.75;4975698;28;20053;-75
2021/12/25 10:44:25;;;;;;;9.30;5.65;;;;;;;-0.98;90.67;100809.19;4972552;28;20105;-75
2021/12/25 10:46:57;;;;;;;12.52;6.88;;;;;;;-0.98;90.84;100811.84;4967072;28;20149;-76
2021/12/25 10:49:28;;;;;;;9.75;4.97;;;;;;;-0.98;90.21;100813.63;4982681;28;20042;-76
2021/12/25 10:51:54;;;;;;;8.02;5.88;;;;;;;-1.03;90.15;100811.06;4985937;28;20031;-75
2021/12/25 10:54:36;;;;;;;9.25;5.85;;;;;;;-1.06;90.67;100806.69;4984515;28;20129;-75
2021/12/25 10:57:02;;;;;;;11.85;6.20;;;;;;;-1.01;90.58;100805.72;4977621;28;20033;-75
2021/12/25 10:59:41;;;;;;;6.47;4.85;;;;;;;-1.00;90.10;100812.78;4981891;28;20046;-76
2021/12/25 11:02:06;;;;;;;9.23;5.50;;;;;;;-1.01;89.73;100806.56;4983933;28;20018;-76
2021/12/25 11:04:36;;;;;;;8.23;4.63;;;;;;;-1.00;91.03;100805.66;4984089;28;20046;-75
2021/12/25 11:07:12;;;;;;;10.80;5.68;;;;;;;-0.92;91.01;100795.66;4980610;28;20100;-76
2021/12/25 11:09:38;;;;;;;10.88;5.80;;;;;;;-0.86;91.29;100795.50;4972628;28;20102;-76
2021/12/25 11:12:20;;;;;;;11.02;5.50;;;;;;;-0.75;90.70;100800.53;4983952;28;20053;-75
2021/12/25 11:14:47;;;;;;;8.68;3.83;;;;;;;-0.66;88.74;100800.28;4979674;28;20042;-74
2021/12/25 11:17:25;;;;;;;6.55;4.20;;;;;;;-0.64;88.92;100797.59;4981929;28;20065;-75
2021/12/25 11:20:00;;;;;;;7.10;4.90;;;;;;;-0.59;89.02;100806.38;4985523;28;20038;-76
2021/12/25 11:22:45;;;;;;;8.75;4.75;;;;;;;-0.55;88.78;100816.06;4982083;28;20022;-75
2021/12/25 11:25:11;;;;;;;8.52;4.60;;;;;;;-0.48;88.79;100814.06;4981617;28;20516;-75
2021/12/25 11:27:36;;;;;;;6.22;4.40;;;;;;;-0.45;89.23;100816.66;4983989;28;20376;-75
2021/12/25 11:30:03;;;;;;;7.28;4.05;;;;;;;-0.45;88.62;100805.97;4980500;28;20038;-75
2021/12/25 11:32:28;;;;;;;6.63;3.45;;;;;;;-0.42;87.37;100809.47;4972067;28;20026;-75
2021/12/25 11:34:58;;;;;;;2.42;1.85;;;;;;;-0.43;87.33;100810.34;4983267;28;20046;-75
2021/12/25 11:37:24;;;;;;;5.18;2.70;;;;;;;-0.45;87.18;100804.19;4981913;28;20085;-75
2021/12/25 11:39:53;;;;;;;6.35;3.58;;;;;;;-0.51;88.43;100799.03;4981941;28;20046;-75
2021/12/25 11:42:19;;;;;;;4.38;2.58;;;;;;;-0.55;86.81;100790.22;4980282;28;20027;-75
2021/12/25 11:44:51;;;;;;;4.47;2.75;;;;;;;-0.60;86.59;100784.13;4982197;28;20043;-75
2021/12/25 11:47:44;;;;;;;4.57;2.72;;;;;;;-0.68;86.72;100787.91;4973465;28;20031;-75
2021/12/25 11:50:17;;;;;;;5.28;2.63;;;;;;;-0.69;86.17;100791.50;4987501;28;20042;-75
2021/12/25 11:52:51;;;;;;;4.00;2.78;;;;;;;-0.64;87.24;100794.94;4986313;28;20498;-75
2021/12/25 11:55:30;;;;;;;4.20;2.75;;;;;;;-0.60;87.13;100793.94;4985338;28;20034;-75
2021/12/25 11:58:20;;;;;;;4.60;2.65;;;;;;;-0.59;86.22;100782.31;4973899;28;20018;-75
2021/12/25 12:00:48;;;;;;;3.92;2.40;;;;;;;-0.53;87.51;100788.34;4982154;28;20065;-75
2021/12/25 12:03:38;;;;;;;4.80;2.80;;;;;;;-0.43;88.15;100782.75;4986727;28;20049;-75
2021/12/25 12:06:04;;;;;;;5.20;2.30;;;;;;;-0.39;86.54;100787.09;4986262;28;20053;-76
2021/12/25 12:08:52;;;;;;;4.60;2.90;;;;;;;-0.37;87.68;100793.28;4985526;28;20047;-75
2021/12/25 12:11:23;;;;;;;4.30;2.78;;;;;;;-0.43;86.18;100788.09;4977765;28;20994;-75
2021/12/25 12:14:19;;;;;;;7.43;2.70;;;;;;;-0.48;86.27;100798.91;4980204;28;20483;-75
2021/12/25 12:16:52;;;;;;;4.60;2.45;;;;;;;-0.49;86.63;100786.47;4977952;28;20030;-76
2021/12/25 12:19:38;;;;;;;;;;;;;;;-0.52;87.82;100786.56;4982818;28;20110;-75
2021/12/25 12:22:19;;;;;;;3.30;2.38;;;;;;;-0.57;86.41;100780.47;4977122;28;19913;-75
2021/12/25 12:25:42;;;;;;;5.95;2.20;;;;;;;-0.58;86.39;100784.06;4986779;28;20037;-75
2021/12/25 12:27:37;;;;;;;4.05;2.05;;;;;;;-0.55;86.12;100773.31;4984832;28;20045;-76
2021/12/25 12:30:06;;;;;;;4.80;2.35;;;;;;;-0.59;85.47;100767.16;4980529;28;20031;-75
2021/12/25 12:32:43;;;;;;;5.18;2.25;;;;;;;-0.54;86.20;100767.03;4981901;28;20078;-76
2021/12/25 12:35:36;;;;;;;3.13;1.65;;;;;;;-0.56;86.56;100761.75;4981128;28;20031;-75
2021/12/25 12:38:39;;;;;;;3.22;1.80;;;;;;;-0.52;86.51;100765.19;4984801;28;20513;-75
2021/12/25 12:41:22;;;;;;;3.07;2.07;;;;;;;-0.51;85.85;100761.63;4975654;28;20391;-75
2021/12/25 12:44:05;;;;;;;3.17;2.15;;;;;;;-0.49;86.34;100764.22;4987694;28;20778;-75
2021/12/25 12:46:48;;;;;;;6.22;2.55;;;;;;;-0.52;86.32;100754.50;4972993;28;20035;-76
2021/12/25 12:49:18;;;;;;;5.15;2.05;;;;;;;-0.51;86.32;100745.59;4973126;28;20531;-76